createdAt,value
2023-02-08T04:02:12.512Z,27.70
2023-02-08T04:04:44.161Z,25.23
2023-02-08T04:07:11.387Z,28.40
2023-02-08T04:09:39.018Z,27.23
2023-02-08T04:12:06.519Z,27.43
2023-02-08T04:14:33.688Z,30.53
2023-02-08T04:17:00.933Z,28.23
2023-02-08T04:19:28.216Z,27.83
2023-02-08T04:21:55.482Z,25.80
2023-02-08T04:24:22.817Z,23.57
2023-02-08T04:26:50.193Z,26.77
2023-02-08T04:29:17.400Z,28.20
2023-02-08T04:31:44.625Z,28.60
2023-02-08T04:34:11.978Z,33.90
2023-02-08T04:36:39.466Z,25.77
2023-02-08T04:39:06.660Z,30.77
2023-02-08T04:41:33.867Z,29.40
2023-02-08T04:44:01.002Z,30.40
2023-02-08T04:46:30.704Z,29.73
2023-02-08T04:48:59.029Z,25.20
2023-02-08T04:51:26.333Z,27.93
2023-02-08T04:53:59.585Z,30.00
2023-02-08T04:56:26.818Z,34.43
2023-02-08T04:58:54.016Z,31.83
2023-02-08T05:01:21.337Z,28.83
2023-02-08T05:03:48.811Z,35.13
2023-02-08T05:06:15.957Z,27.93
2023-02-08T05:08:43.089Z,28.50
2023-02-08T05:11:10.573Z,30.43
2023-02-08T05:13:37.768Z,29.17
2023-02-08T05:16:05.175Z,27.93
2023-02-08T05:18:32.661Z,28.67
2023-02-08T05:21:01.020Z,29.13
2023-02-08T05:23:28.377Z,28.80
2023-02-08T05:25:55.555Z,26.30
2023-02-08T05:28:23.064Z,30.93
2023-02-08T05:30:50.570Z,34.73
2023-02-08T05:33:18.800Z,25.83
2023-02-08T05:35:46.043Z,29.23
2023-02-08T05:38:13.253Z,28.13
2023-02-08T05:40:40.727Z,33.80
2023-02-08T05:43:08.278Z,29.13
2023-02-08T05:45:35.421Z,27.97
2023-02-08T05:48:02.585Z,31.43
2023-02-08T05:50:29.695Z,32.27
2023-02-08T05:52:56.996Z,30.87
2023-02-08T05:55:24.177Z,37.37
2023-02-08T05:57:51.391Z,30.27
2023-02-08T06:00:20.016Z,33.50
2023-02-08T06:02:47.162Z,29.80
2023-02-08T06:05:14.408Z,27.37
2023-02-08T06:07:41.659Z,25.93
2023-02-08T06:10:10.509Z,31.50
2023-02-08T06:12:38.552Z,32.27
2023-02-08T06:15:05.994Z,29.93
2023-02-08T06:17:33.160Z,29.60
2023-02-08T06:20:00.326Z,27.27
2023-02-08T06:22:27.548Z,33.47
2023-02-08T06:24:54.682Z,34.47
2023-02-08T06:27:21.911Z,33.10
2023-02-08T06:29:49.072Z,32.17
2023-02-08T06:32:16.294Z,37.27
2023-02-08T06:34:43.461Z,43.47
2023-02-08T06:37:10.637Z,34.07
2023-02-08T06:39:37.819Z,32.50
2023-02-08T06:42:05.120Z,33.83
2023-02-08T06:44:32.274Z,31.10
2023-02-08T06:46:59.440Z,31.13
2023-02-08T06:49:26.642Z,29.97
2023-02-08T06:51:53.913Z,30.67
2023-02-08T06:54:21.100Z,32.23
2023-02-08T06:56:48.492Z,34.93
2023-02-08T06:59:15.750Z,37.37
2023-02-08T07:01:42.935Z,30.63
2023-02-08T07:04:10.118Z,36.60
2023-02-08T07:06:37.356Z,33.63
2023-02-08T07:09:04.548Z,30.67
2023-02-08T07:11:31.822Z,30.73
2023-02-08T07:13:59.142Z,34.97
2023-02-08T07:16:26.427Z,35.63
2023-02-08T07:18:53.634Z,39.47
2023-02-08T07:21:21.645Z,36.43
2023-02-08T07:23:48.888Z,34.33
2023-02-08T07:26:16.122Z,40.77
2023-02-08T07:28:43.354Z,39.10
2023-02-08T07:31:15.517Z,45.13
2023-02-08T07:33:43.426Z,31.90
2023-02-08T07:36:11.083Z,33.97
2023-02-08T07:38:38.990Z,34.77
2023-02-08T07:41:14.174Z,33.07
2023-02-08T07:43:42.873Z,37.23
2023-02-08T07:46:18.236Z,33.63
2023-02-08T07:48:45.507Z,32.30
2023-02-08T07:51:13.086Z,34.57
2023-02-08T07:53:40.763Z,30.33
2023-02-08T07:56:08.140Z,25.77
2023-02-08T07:58:35.389Z,28.40
2023-02-08T08:01:12.535Z,28.30
2023-02-08T08:03:49.042Z,26.03
2023-02-08T08:06:16.212Z,30.37
2023-02-08T08:08:47.337Z,31.17
2023-02-08T08:11:15.566Z,30.80
2023-02-08T08:13:43.091Z,30.57
2023-02-08T08:16:10.363Z,30.87
2023-02-08T08:18:37.676Z,30.70
2023-02-08T08:21:05.325Z,30.90
2023-02-08T08:23:36.346Z,30.97
2023-02-08T08:26:13.929Z,31.57
2023-02-08T08:28:41.889Z,28.63
2023-02-08T08:31:14.219Z,34.43
2023-02-08T08:33:41.664Z,30.63
2023-02-08T08:36:09.651Z,26.97
2023-02-08T08:38:38.755Z,28.13
2023-02-08T08:41:11.488Z,28.33
2023-02-08T08:43:38.797Z,32.63
2023-02-08T08:46:07.384Z,33.23
2023-02-08T08:48:35.654Z,29.43
2023-02-08T08:51:02.995Z,32.50
2023-02-08T08:53:30.315Z,31.33
2023-02-08T08:55:57.581Z,31.43
2023-02-08T08:58:24.785Z,31.47
2023-02-08T09:00:52.005Z,32.00
2023-02-08T09:03:19.271Z,31.63
2023-02-08T09:05:47.176Z,28.13
2023-02-08T09:08:14.420Z,25.93
2023-02-08T09:10:41.839Z,31.23
2023-02-08T09:13:09.511Z,26.10
2023-02-08T09:15:40.540Z,26.17
2023-02-08T09:18:07.741Z,26.73
2023-02-08T09:20:38.217Z,26.87
2023-02-08T09:23:05.536Z,25.67
2023-02-08T09:25:33.349Z,25.53
2023-02-08T09:28:00.610Z,28.50
2023-02-08T09:30:27.885Z,23.77
2023-02-08T09:32:55.070Z,28.30
2023-02-08T09:35:22.249Z,26.23
2023-02-08T09:37:54.426Z,26.00
2023-02-08T09:40:27.837Z,23.97
2023-02-08T09:43:03.967Z,26.13
2023-02-08T09:45:41.340Z,25.20
2023-02-08T09:48:29.501Z,21.27
2023-02-08T09:51:11.916Z,28.20
2023-02-08T09:53:50.330Z,26.87
2023-02-08T09:56:26.269Z,26.40
2023-02-08T09:58:54.844Z,24.37
2023-02-08T10:01:28.665Z,22.40
2023-02-08T10:04:39.204Z,20.13
2023-02-08T10:07:06.604Z,24.43
2023-02-08T10:09:33.946Z,22.57
2023-02-08T10:12:36.606Z,22.50
2023-02-08T10:15:13.147Z,19.93
2023-02-08T10:18:03.504Z,18.30
2023-02-08T10:20:49.596Z,24.70
2023-02-08T10:23:38.856Z,23.33
2023-02-08T10:26:19.497Z,19.77
2023-02-08T10:29:10.656Z,21.67
2023-02-08T10:32:15.671Z,20.37
2023-02-08T10:34:56.225Z,20.37
2023-02-08T10:37:27.495Z,20.27
2023-02-08T10:39:57.348Z,27.27
2023-02-08T10:42:27.767Z,22.53
2023-02-08T10:45:23.971Z,21.33
2023-02-08T10:47:58.370Z,23.77
2023-02-08T10:50:37.991Z,21.57
2023-02-08T10:53:06.085Z,16.63
2023-02-08T10:55:36.637Z,17.27
2023-02-08T10:58:05.647Z,18.53
2023-02-08T11:00:39.072Z,20.83
2023-02-08T11:03:28.268Z,19.97
2023-02-08T11:05:56.394Z,17.97
2023-02-08T11:08:25.611Z,17.27
2023-02-08T11:11:04.644Z,17.77
2023-02-08T11:13:46.274Z,16.87
2023-02-08T11:16:25.356Z,15.53
2023-02-08T11:18:58.967Z,19.83
2023-02-08T11:21:33.193Z,16.57
2023-02-08T11:24:05.703Z,19.13
2023-02-08T11:26:39.933Z,19.20
2023-02-08T11:29:17.474Z,17.00
2023-02-08T11:32:00.197Z,16.30
2023-02-08T11:34:38.451Z,18.30
2023-02-08T11:37:17.503Z,14.73
2023-02-08T11:39:49.856Z,16.03
2023-02-08T11:42:22.307Z,16.83
2023-02-08T11:44:50.394Z,17.40
2023-02-08T11:47:24.318Z,18.10
2023-02-08T11:49:57.148Z,16.37
2023-02-08T11:52:27.747Z,17.53
2023-02-08T11:55:10.989Z,18.87
2023-02-08T11:58:00.078Z,13.13
2023-02-08T12:00:36.555Z,18.47
2023-02-08T12:03:26.356Z,16.97
2023-02-08T12:06:14.379Z,15.37
2023-02-08T12:09:08.934Z,16.43
2023-02-08T12:11:55.126Z,14.63
2023-02-08T12:14:36.931Z,15.57
2023-02-08T12:17:25.655Z,14.33
2023-02-08T12:20:33.668Z,11.87
2023-02-08T12:23:35.637Z,12.23
2023-02-08T12:26:12.996Z,14.90
2023-02-08T12:28:52.052Z,12.63
2023-02-08T12:31:22.366Z,12.07
2023-02-08T12:34:08.271Z,12.47
2023-02-08T12:36:38.385Z,13.07
2023-02-08T12:39:58.433Z,11.53
2023-02-08T12:43:04.504Z,14.63
2023-02-08T12:45:46.834Z,15.93
2023-02-08T12:48:21.417Z,19.70
2023-02-08T12:51:11.548Z,12.70
2023-02-08T12:53:44.843Z,12.27
2023-02-08T12:56:17.022Z,13.20
2023-02-08T12:58:46.772Z,12.93
2023-02-08T13:01:26.122Z,12.30
2023-02-08T13:04:03.990Z,12.77
2023-02-08T13:06:42.179Z,15.77
2023-02-08T13:09:26.096Z,10.93
2023-02-08T13:12:13.422Z,12.67
2023-02-08T13:14:55.966Z,11.83
2023-02-08T13:17:27.573Z,12.53
2023-02-08T13:20:06.885Z,13.37
2023-02-08T13:22:41.709Z,14.53
2023-02-08T13:25:29.195Z,16.17
2023-02-08T13:28:00.935Z,11.40
2023-02-08T13:30:28.440Z,11.20
2023-02-08T13:32:57.829Z,11.10
2023-02-08T13:35:31.211Z,12.77
2023-02-08T13:38:05.384Z,11.33
2023-02-08T13:40:34.907Z,15.67
2023-02-08T13:43:34.797Z,11.40
2023-02-08T13:46:04.432Z,14.27
2023-02-08T13:49:00.463Z,12.80
2023-02-08T13:51:33.649Z,10.87
2023-02-08T13:54:01.007Z,11.67
2023-02-08T13:56:50.091Z,11.20
2023-02-08T13:59:29.319Z,11.83
2023-02-08T14:02:19.270Z,10.80
2023-02-08T14:05:19.363Z,11.90
2023-02-08T14:07:48.311Z,11.70
2023-02-08T14:10:31.935Z,15.33
2023-02-08T14:13:09.134Z,14.50
2023-02-08T14:15:41.109Z,10.23
2023-02-08T14:18:25.591Z,10.77
2023-02-08T14:21:03.637Z,11.87
2023-02-08T14:23:32.834Z,13.50
2023-02-08T14:26:07.760Z,12.37
2023-02-08T14:28:34.981Z,14.90
2023-02-08T14:31:07.299Z,12.73
2023-02-08T14:33:41.117Z,15.83
2023-02-08T14:36:26.440Z,13.83
2023-02-08T14:39:24.829Z,13.23
2023-02-08T14:41:52.049Z,12.10
2023-02-08T14:44:37.910Z,12.37
2023-02-08T14:47:11.194Z,14.70
2023-02-08T14:49:42.600Z,13.03
2023-02-08T14:52:18.860Z,16.03
2023-02-08T14:54:54.090Z,16.37
2023-02-08T14:57:34.322Z,14.33
2023-02-08T15:00:05.508Z,11.73
2023-02-08T15:02:35.975Z,14.87
2023-02-08T15:05:09.976Z,13.97
2023-02-08T15:07:53.959Z,16.07
2023-02-08T15:10:23.526Z,20.70
2023-02-08T15:12:53.930Z,15.90
2023-02-08T15:15:33.817Z,14.57
2023-02-08T15:18:03.241Z,19.33
2023-02-08T15:20:32.960Z,18.23
2023-02-08T15:23:06.147Z,16.27
2023-02-08T15:25:38.053Z,18.40
2023-02-08T15:28:19.945Z,17.73
2023-02-08T15:31:06.195Z,16.70
2023-02-08T15:33:34.637Z,25.00
2023-02-08T15:36:30.987Z,19.33
2023-02-08T15:39:02.364Z,15.60
2023-02-08T15:41:32.225Z,17.53
2023-02-08T15:44:27.895Z,37.37
2023-02-08T15:46:56.292Z,34.17
2023-02-08T15:49:37.735Z,24.13
2023-02-08T15:52:07.160Z,18.30
2023-02-08T15:54:34.547Z,18.47
2023-02-08T15:57:18.758Z,17.23
2023-02-08T15:59:47.649Z,20.67
2023-02-08T16:02:23.920Z,18.90
2023-02-08T16:04:51.545Z,20.10
2023-02-08T16:07:24.651Z,20.50
2023-02-08T16:09:52.063Z,20.07
2023-02-08T16:12:22.436Z,19.73
2023-02-08T16:14:52.764Z,19.93
2023-02-08T16:17:48.731Z,22.60
2023-02-08T16:20:30.753Z,19.13
2023-02-08T16:23:01.624Z,20.93
2023-02-08T16:25:43.060Z,23.13
2023-02-08T16:28:29.447Z,20.47
2023-02-08T16:31:02.770Z,23.50
2023-02-08T16:33:32.517Z,24.07
2023-02-08T16:36:03.465Z,21.23
2023-02-08T16:38:34.033Z,20.53
2023-02-08T16:41:12.515Z,24.20
2023-02-08T16:43:44.629Z,22.07
2023-02-08T16:46:11.875Z,25.03
2023-02-08T16:48:41.305Z,22.57
2023-02-08T16:51:16.615Z,21.97
2023-02-08T16:53:44.000Z,21.50
2023-02-08T16:56:11.495Z,23.60
2023-02-08T16:58:38.961Z,20.73
2023-02-08T17:01:06.280Z,23.47
2023-02-08T17:03:33.674Z,25.07
2023-02-08T17:06:01.376Z,25.73
2023-02-08T17:08:28.565Z,23.10
2023-02-08T17:10:58.957Z,27.17
2023-02-08T17:13:29.430Z,21.07
2023-02-08T17:15:58.673Z,27.57
2023-02-08T17:18:27.070Z,26.57
2023-02-08T17:20:59.378Z,28.47
2023-02-08T17:23:27.173Z,29.30
2023-02-08T17:25:54.454Z,30.60
2023-02-08T17:28:22.403Z,31.67
2023-02-08T17:30:50.404Z,43.53
2023-02-08T17:33:18.567Z,34.93
2023-02-08T17:35:48.251Z,36.57
2023-02-08T17:38:15.888Z,35.30
2023-02-08T17:40:44.127Z,34.47
2023-02-08T17:43:12.424Z,36.07
2023-02-08T17:45:41.663Z,29.80
2023-02-08T17:48:09.399Z,29.77
2023-02-08T17:50:36.900Z,32.73
2023-02-08T17:53:04.479Z,27.93
2023-02-08T17:55:31.926Z,26.47
2023-02-08T17:57:59.189Z,26.70
2023-02-08T18:00:26.543Z,29.07
2023-02-08T18:02:55.708Z,27.97
2023-02-08T18:05:25.674Z,29.17
2023-02-08T18:07:54.925Z,27.97
2023-02-08T18:10:23.798Z,24.90
2023-02-08T18:12:51.524Z,28.53
2023-02-08T18:15:21.319Z,28.73
2023-02-08T18:17:50.330Z,27.47
2023-02-08T18:20:18.121Z,27.83
2023-02-08T18:22:45.959Z,29.87
2023-02-08T18:25:15.934Z,30.23
2023-02-08T18:27:43.435Z,31.53
2023-02-08T18:30:11.759Z,30.33
2023-02-08T18:32:39.627Z,28.77
2023-02-08T18:35:07.944Z,30.47
2023-02-08T18:37:36.782Z,32.07
2023-02-08T18:40:06.845Z,29.87
2023-02-08T18:42:35.945Z,35.90
2023-02-08T18:45:04.895Z,33.90
2023-02-08T18:47:32.514Z,33.23
2023-02-08T18:49:59.719Z,35.47
2023-02-08T18:52:26.947Z,35.03
2023-02-08T18:54:54.131Z,38.97
2023-02-08T18:57:21.348Z,37.13
2023-02-08T18:59:48.561Z,35.43
2023-02-08T19:02:21.735Z,33.20
2023-02-08T19:04:49.530Z,31.50
2023-02-08T19:07:16.749Z,30.67
2023-02-08T19:09:44.136Z,28.43
2023-02-08T19:12:15.483Z,28.43
2023-02-08T19:14:43.681Z,32.90
2023-02-08T19:17:13.611Z,28.30
2023-02-08T19:19:42.399Z,28.77
2023-02-08T19:22:09.760Z,31.90
2023-02-08T19:24:36.924Z,30.20
2023-02-08T19:27:04.252Z,31.43
2023-02-08T19:29:33.381Z,30.33
2023-02-08T19:32:00.663Z,33.17
2023-02-08T19:34:27.893Z,36.73
2023-02-08T19:36:55.617Z,33.30
2023-02-08T19:39:27.199Z,31.63
2023-02-08T19:41:55.091Z,30.60
2023-02-08T19:44:22.804Z,33.87
2023-02-08T19:46:52.906Z,42.00
2023-02-08T19:49:20.820Z,42.77
2023-02-08T19:51:48.343Z,42.40
2023-02-08T19:54:17.995Z,52.17
2023-02-08T19:56:45.634Z,57.63
2023-02-08T19:59:21.906Z,55.77
2023-02-08T20:01:49.542Z,61.70
2023-02-08T20:04:16.857Z,55.87
2023-02-08T20:06:47.532Z,56.93
2023-02-08T20:09:16.500Z,45.57
2023-02-08T20:11:56.332Z,46.77
2023-02-08T20:14:25.050Z,44.93
2023-02-08T20:16:52.435Z,47.20
2023-02-08T20:19:19.698Z,50.60
2023-02-08T20:21:46.986Z,42.83
2023-02-08T20:24:14.683Z,41.03
2023-02-08T20:26:45.246Z,41.17
2023-02-08T20:29:13.196Z,41.37
2023-02-08T20:31:42.681Z,45.47
2023-02-08T20:34:13.332Z,43.43
2023-02-08T20:36:49.587Z,43.83
2023-02-08T20:39:21.992Z,43.17
2023-02-08T20:41:49.349Z,42.40
2023-02-08T20:44:18.654Z,51.93
2023-02-08T20:46:46.686Z,47.87
2023-02-08T20:49:15.303Z,43.80
2023-02-08T20:51:43.380Z,44.33
2023-02-08T20:54:11.205Z,45.23
2023-02-08T20:56:39.085Z,43.70
2023-02-08T20:59:09.180Z,47.50
2023-02-08T21:01:37.052Z,42.73
2023-02-08T21:04:05.143Z,43.00
2023-02-08T21:06:37.682Z,43.93
2023-02-08T21:09:08.216Z,48.93
2023-02-08T21:11:36.060Z,45.20
2023-02-08T21:14:04.512Z,46.43
2023-02-08T21:16:32.075Z,47.60
2023-02-08T21:18:59.499Z,47.37
2023-02-08T21:21:27.815Z,37.73
2023-02-08T21:23:56.699Z,40.27
2023-02-08T21:26:25.432Z,41.63
2023-02-08T21:28:54.684Z,47.37
2023-02-08T21:31:23.315Z,50.20
2023-02-08T21:33:51.451Z,44.97
2023-02-08T21:36:21.733Z,40.87
2023-02-08T21:38:49.153Z,42.77
2023-02-08T21:41:25.973Z,49.70
2023-02-08T21:43:55.073Z,54.30
2023-02-08T21:46:24.691Z,54.73
2023-02-08T21:49:10.567Z,44.07
2023-02-08T21:51:56.502Z,48.90
2023-02-08T21:54:44.657Z,48.90
2023-02-08T21:57:15.469Z,42.80
2023-02-08T21:59:43.382Z,47.73
